Time;durP1;ratioP1;P1;durP2;ratioP2;P2;SDS_P1;SDS_P2;PMS_P1;PMS_P2;Temp;Humidity;BMP_temperature;BMP_pressure;BME280_temperature;BME280_humidity;BME280_pressure;Samples;Min_cycle;Max_cycle;Signal;HPM_P1;HPM_P2
2023/03/26 00:00:33;;;;;;;7.68;1.83;;;;;;;;;;5087252;28;20052;-74
2023/03/26 00:03:05;;;;;;;4.03;2.08;;;;;;;;;;5086828;28;20806;-74
2023/03/26 00:05:35;;;;;;;11.18;2.50;;;;;;;;;;5086615;28;20061;-73
2023/03/26 00:08:10;;;;;;;7.30;2.05;;;;;;;;;;5087000;28;20469;-74
2023/03/26 00:10:42;;;;;;;8.18;1.98;;;;;;;;;;5086651;28;20056;-74
2023/03/26 00:13:12;;;;;;;7.03;2.15;;;;;;;;;;5087534;28;20056;-74
2023/03/26 00:15:42;;;;;;;6.55;2.22;;;;;;;;;;5086308;28;20525;-74
2023/03/26 00:18:12;;;;;;;6.95;2.03;;;;;;;;;;5087537;28;20486;-74
2023/03/26 00:20:44;;;;;;;5.75;1.85;;;;;;;;;;5068595;28;20059;-74
2023/03/26 00:23:15;;;;;;;7.47;2.22;;;;;;;;;;5086497;28;20514;-74
2023/03/26 00:25:49;;;;;;;8.65;2.38;;;;;;;;;;5087233;28;20048;-74
2023/03/26 00:28:20;;;;;;;6.10;2.38;;;;;;;;;;5086715;28;20051;-74
2023/03/26 00:30:58;;;;;;;9.65;2.20;;;;;;;;;;5068523;28;20059;-74
2023/03/26 00:33:30;;;;;;;5.43;2.28;;;;;;;;;;5067527;28;20051;-73
2023/03/26 00:36:03;;;;;;;6.90;2.33;;;;;;;;;;5086632;28;20055;-73
2023/03/26 00:38:37;;;;;;;6.45;1.92;;;;;;;;;;5106691;28;20118;-74
2023/03/26 00:41:16;;;;;;;4.68;2.00;;;;;;;;;;5106912;28;20055;-74
2023/03/26 00:43:47;;;;;;;5.57;2.30;;;;;;;;;;5106758;28;20048;-74
2023/03/26 00:46:17;;;;;;;5.85;2.60;;;;;;;;;;5106970;28;20043;-74
2023/03/26 00:48:49;;;;;;;8.50;2.58;;;;;;;;;;5106305;28;20050;-74
2023/03/26 00:51:22;;;;;;;5.47;2.10;;;;;;;;;;5105316;28;20047;-75
2023/03/26 00:53:52;;;;;;;3.88;2.33;;;;;;;;;;5107188;28;20044;-74
2023/03/26 00:56:23;;;;;;;9.45;2.60;;;;;;;;;;5101661;28;20046;-75
2023/03/26 00:58:54;;;;;;;7.10;2.58;;;;;;;;;;5091065;28;20048;-74
2023/03/26 01:01:26;;;;;;;4.57;1.88;;;;;;;;;;5094668;28;20414;-74
2023/03/26 01:04:18;;;;;;;6.97;2.33;;;;;;;;;;5095064;28;20521;-74
2023/03/26 01:06:51;;;;;;;7.13;2.38;;;;;;;;;;5096725;28;20475;-75
2023/03/26 01:09:29;;;;;;;5.22;2.17;;;;;;;;;;5078183;28;20055;-75
2023/03/26 01:12:02;;;;;;;4.28;1.92;;;;;;;;;;5096864;28;20043;-74
2023/03/26 01:14:34;;;;;;;8.50;2.53;;;;;;;;;;5077936;28;20055;-74
2023/03/26 01:17:06;;;;;;;3.30;1.90;;;;;;;;;;5096006;28;20051;-75
2023/03/26 01:19:47;;;;;;;7.00;1.83;;;;;;;;;;5097830;28;20058;-74
2023/03/26 01:22:23;;;;;;;8.35;2.60;;;;;;;;;;5100530;28;20050;-74
2023/03/26 01:24:55;;;;;;;8.70;1.80;;;;;;;;;;5100573;28;20526;-74
2023/03/26 01:27:45;;;;;;;6.18;2.20;;;;;;;;;;5097836;28;20421;-73
2023/03/26 01:30:33;;;;;;;5.40;1.77;;;;;;;;;;5100514;28;20047;-73
2023/03/26 01:33:32;;;;;;;2.58;1.77;;;;;;;;;;5098998;28;20511;-73
2023/03/26 01:36:15;;;;;;;4.45;2.08;;;;;;;;;;5099091;28;20403;-73
2023/03/26 01:38:58;;;;;;;5.72;2.08;;;;;;;;;;5097125;28;20052;-74
2023/03/26 01:41:36;;;;;;;3.00;2.00;;;;;;;;;;5097804;28;20058;-73
2023/03/26 01:44:32;;;;;;;5.88;2.22;;;;;;;;;;5081757;28;21110;-75
2023/03/26 01:47:04;;;;;;;4.68;1.88;;;;;;;;;;5115168;27;20538;-74
2023/03/26 01:49:35;;;;;;;8.05;1.60;;;;;;;;;;5098355;28;20039;-74
2023/03/26 01:52:19;;;;;;;6.55;1.90;;;;;;;;;;5098052;28;20056;-75
2023/03/26 01:54:56;;;;;;;7.43;1.60;;;;;;;;;;5082835;28;20075;-73
2023/03/26 01:58:00;;;;;;;5.10;1.98;;;;;;;;;;5097855;28;20047;-73
2023/03/26 02:00:46;;;;;;;6.93;1.60;;;;;;;;;;5097266;28;20517;-74
2023/03/26 02:03:23;;;;;;;3.20;1.80;;;;;;;;;;5098828;28;20067;-73
2023/03/26 02:06:06;;;;;;;6.72;2.03;;;;;;;;;;5098640;28;20059;-74
2023/03/26 02:08:46;;;;;;;4.57;1.73;;;;;;;;;;5099496;28;20051;-73
2023/03/26 02:11:17;;;;;;;3.80;1.95;;;;;;;;;;5080492;28;20043;-76
2023/03/26 02:13:52;;;;;;;5.00;1.70;;;;;;;;;;5097578;28;20054;-74
2023/03/26 02:16:23;;;;;;;6.28;1.70;;;;;;;;;;5089484;28;20050;-74
2023/03/26 02:18:54;;;;;;;2.58;1.67;;;;;;;;;;5087977;28;20067;-74
2023/03/26 02:21:26;;;;;;;4.50;1.75;;;;;;;;;;5070119;28;20048;-74
2023/03/26 02:24:01;;;;;;;11.30;1.90;;;;;;;;;;5070323;28;20052;-74
2023/03/26 02:26:36;;;;;;;4.43;2.05;;;;;;;;;;5070539;28;20531;-74
2023/03/26 02:29:12;;;;;;;6.97;1.80;;;;;;;;;;5069574;28;20063;-74
2023/03/26 02:31:47;;;;;;;3.75;1.80;;;;;;;;;;5069524;28;20048;-74
2023/03/26 02:34:17;;;;;;;7.22;2.60;;;;;;;;;;5088675;28;20063;-74
2023/03/26 02:36:55;;;;;;;16.98;2.47;;;;;;;;;;5070689;28;20404;-76
2023/03/26 02:39:27;;;;;;;17.52;3.45;;;;;;;;;;5069839;28;20063;-76
2023/03/26 02:42:04;;;;;;;9.07;3.97;;;;;;;;;;5070112;28;20055;-76
2023/03/26 02:44:39;;;;;;;7.15;2.80;;;;;;;;;;5070357;28;20052;-76
2023/03/26 02:47:13;;;;;;;7.70;2.42;;;;;;;;;;5095209;28;20052;-75
2023/03/26 02:49:54;;;;;;;7.40;2.22;;;;;;;;;;5088345;28;20071;-76
2023/03/26 02:52:42;;;;;;;47.35;4.25;;;;;;;;;;5069415;28;20052;-76
2023/03/26 02:55:13;;;;;;;10.68;2.47;;;;;;;;;;5069453;28;20507;-76
2023/03/26 02:57:45;;;;;;;7.60;2.28;;;;;;;;;;5123033;27;20056;-75
2023/03/26 03:00:21;;;;;;;5.00;1.75;;;;;;;;;;5105855;28;20430;-77
2023/03/26 03:02:56;;;;;;;3.33;1.52;;;;;;;;;;5114084;28;20418;-77
2023/03/26 03:05:33;;;;;;;3.60;1.73;;;;;;;;;;5111955;28;20418;-76
2023/03/26 03:08:27;;;;;;;4.30;2.03;;;;;;;;;;5108166;28;20048;-76
2023/03/26 03:11:36;;;;;;;5.95;1.95;;;;;;;;;;5025524;28;20088;-76
2023/03/26 03:14:07;;;;;;;4.53;2.00;;;;;;;;;;5024226;28;20054;-76
2023/03/26 03:16:38;;;;;;;3.90;1.77;;;;;;;;;;5069300;28;20058;-76
2023/03/26 03:19:12;;;;;;;4.32;2.00;;;;;;;;;;5089002;28;20518;-76
2023/03/26 03:21:44;;;;;;;4.65;1.77;;;;;;;;;;5089533;28;20046;-76
2023/03/26 03:24:17;;;;;;;7.03;2.03;;;;;;;;;;5089434;28;20044;-76
2023/03/26 03:26:49;;;;;;;2.97;1.70;;;;;;;;;;5108506;28;20043;-75
2023/03/26 03:29:48;;;;;;;3.53;2.00;;;;;;;;;;5100269;28;20055;-76
2023/03/26 03:32:45;;;;;;;2.50;1.60;;;;;;;;;;5069078;28;20059;-75
2023/03/26 03:35:21;;;;;;;2.42;1.60;;;;;;;;;;5089027;28;20056;-76
2023/03/26 03:38:00;;;;;;;3.92;1.50;;;;;;;;;;5088991;28;20051;-76
2023/03/26 03:40:37;;;;;;;3.30;1.70;;;;;;;;;;5088665;28;20422;-76
2023/03/26 03:43:08;;;;;;;3.33;2.00;;;;;;;;;;5089175;28;20051;-76
2023/03/26 03:45:48;;;;;;;4.53;1.83;;;;;;;;;;5088643;28;20070;-76
2023/03/26 03:48:42;;;;;;;1.98;1.77;;;;;;;;;;5088871;28;20058;-76
2023/03/26 03:51:17;;;;;;;3.35;1.77;;;;;;;;;;5089525;28;20071;-76
2023/03/26 03:53:54;;;;;;;5.85;1.95;;;;;;;;;;5088956;28;20067;-76
2023/03/26 03:56:53;;;;;;;3.05;1.95;;;;;;;;;;5089480;28;20056;-75
2023/03/26 03:59:43;;;;;;;3.80;1.55;;;;;;;;;;5088726;28;20062;-76
2023/03/26 04:02:24;;;;;;;5.68;2.50;;;;;;;;;;5088944;28;20066;-76
2023/03/26 04:04:58;;;;;;;;;;;;;;;;;;5088742;28;20427;-76
2023/03/26 04:07:31;;;;;;;7.93;2.63;;;;;;;;;;5072638;28;19919;-76
2023/03/26 04:10:07;;;;;;;6.47;2.67;;;;;;;;;;5110343;28;20056;-75
2023/03/26 04:12:57;;;;;;;3.28;2.10;;;;;;;;;;5081507;28;20051;-76
2023/03/26 04:15:51;;;;;;;2.47;1.60;;;;;;;;;;5099438;28;20051;-75
2023/03/26 04:18:22;;;;;;;4.47;2.00;;;;;;;;;;5087878;28;20055;-75
2023/03/26 04:20:54;;;;;;;7.45;2.28;;;;;;;;;;5089402;28;20529;-75
2023/03/26 04:23:29;;;;;;;3.58;2.15;;;;;;;;;;5088271;28;20066;-75
2023/03/26 04:26:19;;;;;;;2.13;1.80;;;;;;;;;;5106000;28;20055;-75
2023/03/26 04:29:11;;;;;;;3.08;1.60;;;;;;;;;;5110014;28;20503;-75
2023/03/26 04:31:43;;;;;;;3.15;1.70;;;;;;;;;;5106283;28;20055;-75
2023/03/26 04:34:26;;;;;;;3.53;1.30;;;;;;;;;;5087989;28;20056;-75
2023/03/26 04:37:15;;;;;;;6.45;1.40;;;;;;;;;;5088002;28;20048;-75
2023/03/26 04:39:51;;;;;;;2.78;1.30;;;;;;;;;;5087590;28;20048;-75
2023/03/26 04:42:32;;;;;;;6.10;2.10;;;;;;;;;;5113357;28;20055;-75
2023/03/26 04:45:21;;;;;;;3.78;1.38;;;;;;;;;;5088518;28;20490;-75
2023/03/26 04:47:58;;;;;;;5.15;1.50;;;;;;;;;;5089064;28;20059;-75
2023/03/26 04:50:29;;;;;;;3.60;1.38;;;;;;;;;;5087881;28;20048;-75
2023/03/26 04:52:59;;;;;;;2.50;1.38;;;;;;;;;;5109117;28;20052;-75
2023/03/26 04:56:19;;;;;;;2.72;1.33;;;;;;;;;;5107028;28;20055;-75
2023/03/26 04:59:29;;;;;;;2.90;1.15;;;;;;;;;;5008200;28;20445;-75
2023/03/26 05:02:01;;;;;;;2.80;1.02;;;;;;;;;;5076663;28;20051;-75
2023/03/26 05:04:39;;;;;;;2.22;1.10;;;;;;;;;;5091776;28;20055;-75
2023/03/26 05:07:12;;;;;;;2.60;1.00;;;;;;;;;;5092243;28;20761;-75
2023/03/26 05:09:47;;;;;;;1.23;1.05;;;;;;;;;;5091862;28;20066;-75
2023/03/26 05:12:37;;;;;;;9.27;1.33;;;;;;;;;;5092232;28;20047;-75
2023/03/26 05:15:15;;;;;;;2.65;1.10;;;;;;;;;;5092551;28;20056;-75
2023/03/26 05:18:02;;;;;;;6.10;1.00;;;;;;;;;;5091846;28;20048;-75
2023/03/26 05:20:42;;;;;;;2.13;1.20;;;;;;;;;;5091675;28;20047;-76
2023/03/26 05:23:14;;;;;;;3.72;1.58;;;;;;;;;;5110272;28;20401;-75
2023/03/26 05:25:53;;;;;;;2.97;1.20;;;;;;;;;;5091637;28;20054;-75
2023/03/26 05:28:27;;;;;;;10.13;1.20;;;;;;;;;;5091552;28;20051;-75
2023/03/26 05:31:31;;;;;;;;;;;;;;;;;;5095873;28;20056;-76
2023/03/26 05:34:05;;;;;;;2.80;1.20;;;;;;;;;;5125670;27;19924;-75
2023/03/26 05:36:35;;;;;;;5.28;1.33;;;;;;;;;;5110559;28;20048;-75
2023/03/26 05:39:28;;;;;;;3.42;1.30;;;;;;;;;;5110125;28;20071;-75
2023/03/26 05:42:37;;;;;;;5.63;1.05;;;;;;;;;;5110212;28;20048;-75
2023/03/26 05:45:26;;;;;;;3.55;1.38;;;;;;;;;;5091119;28;20079;-75
2023/03/26 05:47:59;;;;;;;6.78;1.50;;;;;;;;;;5091558;28;20837;-75
2023/03/26 05:50:30;;;;;;;2.58;1.20;;;;;;;;;;5110178;28;20050;-75
2023/03/26 05:53:00;;;;;;;5.28;1.50;;;;;;;;;;5090698;28;20538;-75
2023/03/26 05:55:57;;;;;;;6.32;1.70;;;;;;;;;;5063606;28;20070;-75
2023/03/26 05:58:46;;;;;;;1.58;1.17;;;;;;;;;;5112165;28;20052;-75
2023/03/26 06:01:49;;;;;;;2.97;1.40;;;;;;;;;;5037047;28;20053;-75
2023/03/26 06:04:51;;;;;;;5.75;1.23;;;;;;;;;;5053469;28;20051;-75
2023/03/26 06:07:45;;;;;;;3.30;1.30;;;;;;;;;;5090832;28;20491;-75
2023/03/26 06:10:19;;;;;;;4.97;1.52;;;;;;;;;;5091000;28;20055;-75
2023/03/26 06:12:50;;;;;;;1.40;1.00;;;;;;;;;;5090371;28;20063;-75
2023/03/26 06:15:20;;;;;;;3.35;1.23;;;;;;;;;;5090460;28;20052;-75
2023/03/26 06:18:03;;;;;;;4.05;1.33;;;;;;;;;;5090445;28;20051;-75
2023/03/26 06:21:00;;;;;;;1.70;1.13;;;;;;;;;;5090904;28;20059;-75
2023/03/26 06:23:47;;;;;;;4.40;1.60;;;;;;;;;;5090181;28;20067;-75
2023/03/26 06:26:41;;;;;;;2.63;1.70;;;;;;;;;;5091350;28;20502;-75
2023/03/26 06:29:12;;;;;;;5.35;2.78;;;;;;;;;;5114405;28;20058;-75
2023/03/26 06:32:01;;;;;;;1.55;1.00;;;;;;;;;;5109989;28;20502;-76
2023/03/26 06:34:51;;;;;;;2.25;1.52;;;;;;;;;;5090215;28;20541;-74
2023/03/26 06:37:21;;;;;;;4.55;1.15;;;;;;;;;;5090551;28;20047;-75
2023/03/26 06:39:57;;;;;;;2.50;1.30;;;;;;;;;;5090419;28;20055;-75
2023/03/26 06:43:00;;;;;;;3.83;1.10;;;;;;;;;;5074973;28;20056;-75
2023/03/26 06:45:57;;;;;;;4.90;1.40;;;;;;;;;;5113502;28;20055;-74
2023/03/26 06:48:40;;;;;;;4.32;1.20;;;;;;;;;;5111884;28;20426;-75
2023/03/26 06:51:18;;;;;;;6.45;1.52;;;;;;;;;;5110619;28;20047;-76
2023/03/26 06:54:06;;;;;;;7.18;1.25;;;;;;;;;;5114256;28;20055;-75
2023/03/26 06:57:03;;;;;;;4.50;1.08;;;;;;;;;;5104876;28;20059;-76
2023/03/26 06:59:37;;;;;;;2.63;1.10;;;;;;;;;;5109197;28;20060;-75
2023/03/26 07:02:25;;;;;;;1.65;0.90;;;;;;;;;;5113361;28;20048;-75
2023/03/26 07:05:15;;;;;;;2.88;1.13;;;;;;;;;;5111414;28;20047;-76
2023/03/26 07:08:04;;;;;;;2.88;1.15;;;;;;;;;;5108939;28;20055;-75
2023/03/26 07:11:07;;;;;;;1.20;0.90;;;;;;;;;;5073956;28;20047;-76
2023/03/26 07:14:13;;;;;;;3.53;0.80;;;;;;;;;;5026043;28;20049;-76
2023/03/26 07:16:43;;;;;;;3.25;0.80;;;;;;;;;;5092939;28;20051;-76
2023/03/26 07:19:32;;;;;;;8.73;0.90;;;;;;;;;;5089928;28;20055;-76
2023/03/26 07:22:03;;;;;;;0.95;0.50;;;;;;;;;;5089820;28;20625;-76
2023/03/26 07:24:51;;;;;;;3.22;0.60;;;;;;;;;;5108657;28;20040;-77
2023/03/26 07:28:13;;;;;;;2.58;0.60;;;;;;;;;;5062984;28;20051;-75
2023/03/26 07:31:33;;;;;;;1.85;0.52;;;;;;;;;;5034519;28;20053;-75
2023/03/26 07:34:30;;;;;;;1.08;0.50;;;;;;;;;;5076351;28;20446;-76
2023/03/26 07:37:58;;;;;;;0.52;0.40;;;;;;;;;;5075047;28;20535;-76
2023/03/26 07:41:05;;;;;;;1.42;0.40;;;;;;;;;;5089281;28;20047;-76
2023/03/26 07:44:15;;;;;;;1.17;0.68;;;;;;;;;;5113491;28;20055;-75
2023/03/26 07:47:48;;;;;;;2.30;0.70;;;;;;;;;;5034911;28;20053;-75
2023/03/26 07:50:44;;;;;;;0.70;0.40;;;;;;;;;;5088892;28;20430;-76
2023/03/26 07:53:41;;;;;;;5.15;0.70;;;;;;;;;;5105631;28;20060;-75
2023/03/26 07:56:53;;;;;;;0.30;0.30;;;;;;;;;;5107286;28;20044;-76
2023/03/26 07:59:58;;;;;;;0.90;0.50;;;;;;;;;;5088878;28;20056;-75
2023/03/26 08:03:10;;;;;;;1.05;0.32;;;;;;;;;;5112759;28;20047;-75
2023/03/26 08:06:18;;;;;;;0.40;0.40;;;;;;;;;;5093916;28;20646;-77
2023/03/26 08:09:42;;;;;;;2.25;0.60;;;;;;;;;;5107182;28;20039;-76
2023/03/26 08:12:49;;;;;;;3.72;0.47;;;;;;;;;;5094585;28;20502;-76
2023/03/26 08:15:25;;;;;;;2.67;0.50;;;;;;;;;;5107217;28;20047;-75
2023/03/26 08:18:26;;;;;;;1.20;0.60;;;;;;;;;;5088389;28;20052;-75
2023/03/26 08:21:05;;;;;;;0.70;0.70;;;;;;;;;;5106852;28;20437;-75
2023/03/26 08:24:02;;;;;;;0.95;0.68;;;;;;;;;;5106995;28;20039;-74
2023/03/26 08:26:47;;;;;;;3.75;0.50;;;;;;;;;;5096813;28;20056;-74
2023/03/26 08:29:48;;;;;;;1.95;0.65;;;;;;;;;;5106594;28;20051;-75
2023/03/26 08:32:19;;;;;;;0.50;0.50;;;;;;;;;;5106390;28;20499;-76
2023/03/26 08:34:51;;;;;;;2.13;0.45;;;;;;;;;;5103645;28;20054;-76
2023/03/26 08:37:22;;;;;;;1.35;0.52;;;;;;;;;;5107712;28;20054;-76
2023/03/26 08:39:53;;;;;;;3.10;0.63;;;;;;;;;;5107016;28;20066;-75
2023/03/26 08:43:00;;;;;;;1.27;0.50;;;;;;;;;;5107197;28;20047;-75
2023/03/26 08:45:46;;;;;;;0.88;0.60;;;;;;;;;;5088216;28;20055;-76
2023/03/26 08:48:55;;;;;;;2.53;0.35;;;;;;;;;;5106842;28;20070;-76
2023/03/26 08:51:45;;;;;;;0.75;0.40;;;;;;;;;;5107117;28;20059;-76
2023/03/26 08:54:34;;;;;;;2.70;0.40;;;;;;;;;;5106716;28;20054;-76
2023/03/26 08:57:28;;;;;;;2.83;0.52;;;;;;;;;;5107246;28;20043;-76
2023/03/26 09:00:12;;;;;;;0.82;0.30;;;;;;;;;;5106614;28;20040;-75
2023/03/26 09:02:45;;;;;;;1.25;0.35;;;;;;;;;;5106537;28;20502;-76
2023/03/26 09:05:53;;;;;;;1.92;0.30;;;;;;;;;;5108014;28;20047;-76
2023/03/26 09:08:37;;;;;;;0.57;0.30;;;;;;;;;;5088423;28;20054;-75
2023/03/26 09:11:32;;;;;;;2.90;0.30;;;;;;;;;;5087715;28;20052;-76
2023/03/26 09:14:08;;;;;;;0.40;0.32;;;;;;;;;;5106679;28;20051;-76
2023/03/26 09:17:26;;;;;;;0.50;0.50;;;;;;;;;;5106840;28;20506;-75
2023/03/26 09:20:17;;;;;;;0.85;0.43;;;;;;;;;;5023017;28;20052;-76
2023/03/26 09:23:27;;;;;;;0.50;0.45;;;;;;;;;;5024275;28;20060;-75
2023/03/26 09:26:17;;;;;;;0.28;0.28;;;;;;;;;;5043827;28;20410;-76
2023/03/26 09:28:50;;;;;;;2.47;0.57;;;;;;;;;;5044182;28;20045;-76
2023/03/26 09:31:56;;;;;;;0.35;0.32;;;;;;;;;;5087452;28;20052;-76
2023/03/26 09:34:47;;;;;;;1.00;0.35;;;;;;;;;;5053525;28;20066;-75
2023/03/26 09:37:45;;;;;;;1.95;0.40;;;;;;;;;;5088021;28;20079;-75
2023/03/26 09:40:36;;;;;;;2.50;0.63;;;;;;;;;;5089830;28;20070;-75
2023/03/26 09:43:29;;;;;;;1.83;0.60;;;;;;;;;;5110259;28;20048;-75
2023/03/26 09:46:02;;;;;;;0.90;0.55;;;;;;;;;;5073647;28;20056;-75
2023/03/26 09:48:58;;;;;;;4.88;0.90;;;;;;;;;;5092468;28;20043;-75
2023/03/26 09:52:07;;;;;;;5.72;1.15;;;;;;;;;;5093265;28;20058;-76
2023/03/26 09:55:06;;;;;;;1.45;0.70;;;;;;;;;;5029536;28;20056;-75
2023/03/26 09:58:15;;;;;;;2.42;0.70;;;;;;;;;;5110244;28;20044;-75
2023/03/26 10:01:07;;;;;;;0.50;0.43;;;;;;;;;;5109919;28;20052;-75
2023/03/26 10:03:59;;;;;;;1.63;0.40;;;;;;;;;;5109933;28;20050;-75
2023/03/26 10:06:51;;;;;;;0.50;0.50;;;;;;;;;;5109950;28;20050;-75
2023/03/26 10:09:43;;;;;;;2.35;0.47;;;;;;;;;;5109518;28;20429;-76
2023/03/26 10:12:41;;;;;;;1.40;0.40;;;;;;;;;;5109565;28;20047;-75
2023/03/26 10:15:24;;;;;;;2.40;0.60;;;;;;;;;;5109984;28;20059;-75
2023/03/26 10:17:59;;;;;;;0.52;0.45;;;;;;;;;;5109646;28;20065;-76
2023/03/26 10:20:52;;;;;;;0.50;0.43;;;;;;;;;;5109465;28;20035;-76
2023/03/26 10:23:55;;;;;;;3.78;0.77;;;;;;;;;;5090575;28;20051;-76
2023/03/26 10:26:46;;;;;;;1.73;0.70;;;;;;;;;;5109121;28;20047;-75
2023/03/26 10:30:16;;;;;;;1.15;0.80;;;;;;;;;;5107254;28;20809;-76
2023/03/26 10:32:56;;;;;;;0.80;0.60;;;;;;;;;;5109134;28;20047;-77
2023/03/26 10:35:44;;;;;;;1.52;0.50;;;;;;;;;;5109195;28;20043;-74
2023/03/26 10:38:51;;;;;;;2.92;0.55;;;;;;;;;;5089877;28;20052;-76
2023/03/26 10:41:40;;;;;;;1.95;0.60;;;;;;;;;;5108988;28;20050;-76
2023/03/26 10:44:33;;;;;;;1.08;0.40;;;;;;;;;;5109253;28;20401;-75
2023/03/26 10:47:16;;;;;;;1.98;0.57;;;;;;;;;;5108823;28;20047;-76
2023/03/26 10:50:12;;;;;;;5.38;0.50;;;;;;;;;;5108528;28;20048;-76
2023/03/26 10:53:09;;;;;;;0.35;0.35;;;;;;;;;;5108679;28;20565;-75
2023/03/26 10:55:46;;;;;;;0.20;0.20;;;;;;;;;;5109231;28;20052;-75
2023/03/26 10:58:18;;;;;;;7.55;0.55;;;;;;;;;;5108966;28;20050;-76
2023/03/26 11:01:10;;;;;;;3.58;0.70;;;;;;;;;;5108783;28;20051;-76
2023/03/26 11:03:53;;;;;;;2.92;0.68;;;;;;;;;;5090843;28;20044;-76
2023/03/26 11:06:34;;;;;;;1.70;0.80;;;;;;;;;;5108151;28;20047;-75
2023/03/26 11:09:16;;;;;;;0.68;0.45;;;;;;;;;;5090160;28;20043;-75
2023/03/26 11:12:17;;;;;;;1.23;0.38;;;;;;;;;;5108474;28;20498;-75
2023/03/26 11:15:26;;;;;;;4.82;0.80;;;;;;;;;;5108566;28;20418;-76
2023/03/26 11:18:25;;;;;;;5.28;0.30;;;;;;;;;;5108603;28;20043;-74
2023/03/26 11:21:16;;;;;;;0.30;0.30;;;;;;;;;;5089260;28;20055;-75
2023/03/26 11:24:00;;;;;;;3.60;2.55;;;;;;;;;;5108244;28;20405;-77
2023/03/26 11:26:37;;;;;;;2.17;0.57;;;;;;;;;;5108322;28;20078;-75
2023/03/26 11:29:26;;;;;;;3.63;0.30;;;;;;;;;;5108797;28;20565;-76
2023/03/26 11:32:12;;;;;;;3.28;0.60;;;;;;;;;;5108347;28;20533;-78
2023/03/26 11:35:00;;;;;;;0.30;0.30;;;;;;;;;;5089339;28;20493;-76
2023/03/26 11:42:11;;;;;;;0.60;0.50;;;;;;;;;;5091352;28;20056;-76
2023/03/26 11:44:53;;;;;;;1.52;0.45;;;;;;;;;;5086064;28;20060;-76
2023/03/26 11:47:35;;;;;;;3.13;0.80;;;;;;;;;;5088004;28;20052;-76
2023/03/26 11:50:10;;;;;;;3.28;0.70;;;;;;;;;;5087170;28;20059;-76
2023/03/26 11:52:40;;;;;;;0.70;0.40;;;;;;;;;;5087409;28;20534;-76
2023/03/26 11:55:11;;;;;;;1.48;0.50;;;;;;;;;;5087104;28;20044;-76
2023/03/26 11:57:50;;;;;;;0.77;0.40;;;;;;;;;;5086967;28;20051;-75
2023/03/26 12:00:22;;;;;;;1.45;0.28;;;;;;;;;;5087360;28;20055;-76
2023/03/26 12:02:57;;;;;;;2.58;1.00;;;;;;;;;;5086456;28;20502;-76
2023/03/26 12:05:47;;;;;;;0.65;0.43;;;;;;;;;;5068589;28;20133;-74
2023/03/26 12:08:32;;;;;;;3.58;0.40;;;;;;;;;;5086758;28;20040;-76
2023/03/26 12:11:11;;;;;;;2.50;0.38;;;;;;;;;;5068232;28;20059;-76
2023/03/26 12:13:50;;;;;;;2.33;0.75;;;;;;;;;;5087580;28;20499;-76
2023/03/26 12:16:21;;;;;;;1.42;0.52;;;;;;;;;;5086844;28;20059;-76
2023/03/26 12:19:07;;;;;;;1.35;0.40;;;;;;;;;;5087069;28;20427;-75
2023/03/26 12:21:58;;;;;;;0.50;0.50;;;;;;;;;;5086675;28;20031;-77
2023/03/26 12:24:34;;;;;;;1.98;0.47;;;;;;;;;;5086476;28;20040;-76
2023/03/26 12:27:31;;;;;;;0.75;0.57;;;;;;;;;;5068020;28;20442;-75
2023/03/26 12:30:24;;;;;;;0.85;0.55;;;;;;;;;;5086563;28;20097;-76
2023/03/26 12:33:02;;;;;;;1.38;1.00;;;;;;;;;;5086346;28;20048;-76
2023/03/26 12:35:34;;;;;;;3.20;0.50;;;;;;;;;;5086005;28;20039;-76
2023/03/26 12:38:37;;;;;;;3.53;0.77;;;;;;;;;;5087216;28;20502;-75
2023/03/26 12:41:14;;;;;;;4.93;0.68;;;;;;;;;;5086465;28;20094;-78
2023/03/26 12:44:29;;;;;;;0.65;0.40;;;;;;;;;;5086368;28;20044;-77
2023/03/26 12:47:27;;;;;;;1.27;0.50;;;;;;;;;;5086312;28;20044;-77
2023/03/26 12:50:22;;;;;;;1.15;0.47;;;;;;;;;;5086959;28;20072;-76
2023/03/26 12:53:21;;;;;;;4.38;0.60;;;;;;;;;;5087058;28;20047;-75
2023/03/26 12:55:59;;;;;;;4.22;0.70;;;;;;;;;;5068508;28;20063;-76
2023/03/26 12:58:46;;;;;;;0.77;0.63;;;;;;;;;;5086546;28;20044;-76
2023/03/26 13:02:21;;;;;;;1.20;0.50;;;;;;;;;;4976836;28;20600;-77
2023/03/26 13:05:41;;;;;;;0.70;0.32;;;;;;;;;;4987688;28;20062;-75
2023/03/26 13:08:31;;;;;;;1.02;0.55;;;;;;;;;;4967647;28;20047;-78
2023/03/26 13:11:13;;;;;;;0.73;0.52;;;;;;;;;;4984701;28;20528;-78
2023/03/26 13:13:45;;;;;;;0.47;0.40;;;;;;;;;;4969478;28;20058;-76
2023/03/26 13:16:27;;;;;;;0.95;0.47;;;;;;;;;;5023409;28;20049;-76
2023/03/26 13:19:17;;;;;;;1.83;0.57;;;;;;;;;;5089187;28;20510;-75
2023/03/26 13:22:37;;;;;;;0.50;0.50;;;;;;;;;;5090165;28;20506;-76
2023/03/26 13:25:24;;;;;;;0.73;0.65;;;;;;;;;;5029489;28;20058;-75
2023/03/26 13:28:17;;;;;;;2.53;0.55;;;;;;;;;;5090038;28;20486;-76
2023/03/26 13:31:00;;;;;;;0.65;0.55;;;;;;;;;;5089564;28;20059;-75
2023/03/26 13:34:07;;;;;;;2.70;0.45;;;;;;;;;;5087989;28;20048;-75
2023/03/26 13:36:45;;;;;;;2.72;0.77;;;;;;;;;;5090199;28;20111;-76
2023/03/26 13:39:40;;;;;;;1.27;0.40;;;;;;;;;;5089976;28;20056;-77
2023/03/26 13:42:32;;;;;;;0.60;0.40;;;;;;;;;;5072411;28;20051;-75
2023/03/26 13:45:08;;;;;;;1.88;0.65;;;;;;;;;;5089061;28;20052;-75
2023/03/26 13:47:46;;;;;;;0.95;0.50;;;;;;;;;;5090314;28;20498;-76
2023/03/26 13:50:41;;;;;;;0.60;0.60;;;;;;;;;;5089748;28;20043;-75
2023/03/26 13:53:20;;;;;;;1.02;0.40;;;;;;;;;;5090268;28;20036;-76
2023/03/26 13:55:59;;;;;;;0.88;0.60;;;;;;;;;;5090398;28;20044;-76
2023/03/26 13:58:52;;;;;;;3.53;0.45;;;;;;;;;;5088290;28;20063;-75
2023/03/26 14:01:35;;;;;;;1.90;0.63;;;;;;;;;;5089878;28;20036;-76
2023/03/26 14:04:32;;;;;;;1.98;0.73;;;;;;;;;;5089891;28;20495;-75
2023/03/26 14:07:25;;;;;;;2.13;1.10;;;;;;;;;;5088950;28;20048;-75
2023/03/26 14:10:06;;;;;;;4.18;0.80;;;;;;;;;;5089271;28;20044;-76
2023/03/26 14:12:56;;;;;;;1.55;0.90;;;;;;;;;;5087665;28;20052;-75
2023/03/26 14:15:32;;;;;;;5.65;1.48;;;;;;;;;;5089386;28;20040;-75
2023/03/26 14:18:04;;;;;;;1.05;0.80;;;;;;;;;;5088529;28;20501;-76
2023/03/26 14:20:55;;;;;;;1.65;0.85;;;;;;;;;;5088773;28;20055;-77
2023/03/26 14:23:50;;;;;;;1.42;0.90;;;;;;;;;;5089119;28;20443;-75
2023/03/26 14:26:47;;;;;;;8.82;2.28;;;;;;;;;;5088637;28;20052;-77
2023/03/26 14:29:34;;;;;;;4.53;1.25;;;;;;;;;;5089119;28;20044;-75
2023/03/26 14:32:19;;;;;;;2.88;1.58;;;;;;;;;;5088043;28;20051;-78
2023/03/26 14:35:16;;;;;;;3.13;0.80;;;;;;;;;;5089761;28;20071;-77
2023/03/26 14:38:13;;;;;;;1.40;1.00;;;;;;;;;;5069252;28;20087;-77
2023/03/26 14:40:52;;;;;;;5.25;2.92;;;;;;;;;;5081733;28;20052;-79
2023/03/26 14:43:44;;;;;;;6.10;4.00;;;;;;;;;;5070485;28;20067;-78
2023/03/26 14:46:21;;;;;;;2.20;0.90;;;;;;;;;;5088744;28;20043;-74
2023/03/26 14:48:56;;;;;;;1.33;0.60;;;;;;;;;;5088844;28;20044;-76
2023/03/26 14:51:37;;;;;;;3.22;0.93;;;;;;;;;;5088758;28;20048;-77
2023/03/26 14:54:17;;;;;;;3.90;1.00;;;;;;;;;;5088743;28;20051;-76
2023/03/26 14:57:35;;;;;;;3.42;1.70;;;;;;;;;;5089098;28;20048;-76
2023/03/26 15:00:14;;;;;;;3.28;1.70;;;;;;;;;;5077277;28;20048;-75
2023/03/26 15:03:09;;;;;;;5.00;1.65;;;;;;;;;;5098298;28;20055;-76
2023/03/26 15:06:05;;;;;;;4.35;1.50;;;;;;;;;;5070577;28;20052;-75
2023/03/26 15:09:19;;;;;;;2.40;1.63;;;;;;;;;;5107103;28;20417;-82
2023/03/26 15:12:16;;;;;;;3.38;1.17;;;;;;;;;;5099193;28;20059;-76
2023/03/26 15:15:20;;;;;;;4.65;1.40;;;;;;;;;;5098643;28;20415;-78
2023/03/26 15:17:54;;;;;;;1.73;1.27;;;;;;;;;;5080555;28;20080;-74
2023/03/26 15:20:45;;;;;;;4.28;2.53;;;;;;;;;;5105714;28;20047;-74
2023/03/26 15:23:19;;;;;;;5.53;1.55;;;;;;;;;;5084169;28;20439;-75
2023/03/26 15:26:06;;;;;;;2.90;1.63;;;;;;;;;;5096907;28;20043;-74
2023/03/26 15:29:15;;;;;;;3.85;1.73;;;;;;;;;;5094482;28;20059;-76
2023/03/26 15:32:04;;;;;;;2.75;1.33;;;;;;;;;;5097542;28;20072;-77
2023/03/26 15:35:01;;;;;;;1.80;1.27;;;;;;;;;;5101280;28;20040;-77
2023/03/26 15:37:49;;;;;;;5.35;1.25;;;;;;;;;;5095752;28;20506;-76
2023/03/26 15:40:58;;;;;;;3.03;1.52;;;;;;;;;;5087586;28;20403;-74
2023/03/26 15:43:57;;;;;;;1.80;1.40;;;;;;;;;;5087865;28;20044;-77
2023/03/26 15:47:02;;;;;;;1.95;1.30;;;;;;;;;;5072850;28;20044;-75
2023/03/26 15:49:46;;;;;;;1.63;1.10;;;;;;;;;;5088210;28;20047;-76
2023/03/26 15:52:35;;;;;;;5.88;0.98;;;;;;;;;;5088519;28;20662;-76
2023/03/26 15:55:35;;;;;;;2.63;1.17;;;;;;;;;;5087268;28;20043;-74
2023/03/26 15:58:23;;;;;;;1.23;0.88;;;;;;;;;;5087652;28;20055;-75
2023/03/26 16:01:07;;;;;;;2.28;0.90;;;;;;;;;;5087635;28;20051;-77
2023/03/26 16:03:47;;;;;;;2.08;0.90;;;;;;;;;;5086376;28;20044;-77
2023/03/26 16:06:40;;;;;;;1.58;1.02;;;;;;;;;;5086542;28;20047;-74
2023/03/26 16:09:45;;;;;;;2.92;1.30;;;;;;;;;;5069441;28;20418;-75
2023/03/26 16:12:16;;;;;;;2.00;0.90;;;;;;;;;;5087167;28;20070;-75
2023/03/26 16:15:24;;;;;;;1.95;1.13;;;;;;;;;;5083035;28;20056;-74
2023/03/26 16:18:18;;;;;;;2.45;1.05;;;;;;;;;;5020690;28;20085;-75
2023/03/26 16:20:55;;;;;;;2.55;1.20;;;;;;;;;;5107574;28;20506;-75
2023/03/26 16:23:35;;;;;;;1.80;1.05;;;;;;;;;;5108234;28;20054;-75
2023/03/26 16:26:45;;;;;;;1.95;1.25;;;;;;;;;;5107850;28;20047;-75
2023/03/26 16:29:21;;;;;;;2.63;1.30;;;;;;;;;;5061734;28;20391;-75
2023/03/26 16:32:09;;;;;;;1.65;0.93;;;;;;;;;;5105243;28;20519;-75
2023/03/26 16:35:09;;;;;;;1.60;0.82;;;;;;;;;;5087341;28;20055;-76
2023/03/26 16:37:44;;;;;;;2.25;0.90;;;;;;;;;;5070684;28;20056;-77
2023/03/26 16:40:16;;;;;;;3.40;1.05;;;;;;;;;;5086497;28;20419;-77